Hauptseite
METAR-TAF:

METAR-TAF

Flughäfen :

Flughafen Åre Östersund

Östersund-Frösön, Schweden

Breite: 63-11N, Länge: 014-30E, Höhe: 376 m

Beobachtung

Neuester Wetterbericht von vor 30 Minuten, um 18:50 UTC
Wind 11 kt aus Südost
Temperatur 21°C
Luftfeuchtigkeit 33%
Luftdruck 1019 hPa
Sichtweite 10 km oder mehr
keine Wolken unter 1500 m und keine Kumulonimbus oder Gewitterwolken

METAR: ESNZ 231850Z 14011KT CAVOK 21/04 Q1019

Zeit: 21:20 (19:20 UTC)

Prognose

Neuester Wetterbericht von vor 1 Stunde und 50 Minuten, um 17:30 UTC
Gültige Prognose vom 23 um 18 UTC bis 23 um 22 UTC
Wind 9 kt aus Süd/Südost
Sichtweite 10 km oder mehr
keine Wolken unter 1500 m und keine Kumulonimbus oder Gewitterwolken

TAF: ESNZ 231730Z 2318/2322 16009KT CAVOK

Wetterbeobachtungen und Prognosen von mehr als 4000 Flughäfen (METAR und TAF Bericht).

Die verfügbaren Stationen werden durch gelbe und rote Markierungen auf der Karte dargestellt.

Führen Sie die Maus auf sie, um den Namen der Station zu sehen.

Darauf klicken, um die Beobachtung von Wetterbeobachtungen und Prognosen zu sehen.

Um die Karte zu ändern : klicken Sie auf den grünen Tasten mit einem schwarzen Kreuz Zum Vergrößern, auf den grünen Button mit einem Gedankenstrich zu verkleinern, oder auf die grünen Pfeile für benachbarte Karten.


METAR-TAF: